Concord, North Carolina
Current Conditions -  °F | °C
As of 3:55 PM on Friday 24 Oct 2014 (Local Time) from KJQF Reporting Station
Clear Clear  
Wind Chill: 70°   Ceiling: Unl
Heat Index: 70°   Visibility: 10mi
Dew Point: 37°   Wind: 3mph
Humidity: 31%   Direction: 280°W
Pressure: 30.03"   Gusts: NA
Location:  35.41°N, 80.58°W
Report Text: KJQF 241955Z 28003KT 10SM CLR 21/03 A3003
Loading
Personal Weather Stations






























Interactive Weather Map New forecast layout! Learn more

10-Day Weather Forecast

Advertisements
Track Severe Weather on mobile